sensor_id;sensor_type;location;lat;lon;timestamp;P1;durP1;ratioP1;P2;durP2;ratioP2
3959;SDS011;1994;48.640;8.894;2023-05-16T00:00:19;6.33;;;5.70;;
3959;SDS011;1994;48.640;8.894;2023-05-16T00:02:45;6.87;;;5.83;;
3959;SDS011;1994;48.640;8.894;2023-05-16T00:05:12;9.83;;;6.03;;
3959;SDS011;1994;48.640;8.894;2023-05-16T00:07:40;7.50;;;6.07;;
3959;SDS011;1994;48.640;8.894;2023-05-16T00:10:08;7.10;;;6.23;;
3959;SDS011;1994;48.640;8.894;2023-05-16T00:12:35;7.50;;;6.40;;
3959;SDS011;1994;48.640;8.894;2023-05-16T00:15:03;6.90;;;6.23;;
3959;SDS011;1994;48.640;8.894;2023-05-16T00:17:36;7.77;;;6.20;;
3959;SDS011;1994;48.640;8.894;2023-05-16T00:20:02;7.17;;;6.43;;
3959;SDS011;1994;48.640;8.894;2023-05-16T00:22:35;7.60;;;6.40;;
3959;SDS011;1994;48.640;8.894;2023-05-16T00:25:02;8.70;;;6.67;;
3959;SDS011;1994;48.640;8.894;2023-05-16T00:27:28;9.00;;;7.20;;
3959;SDS011;1994;48.640;8.894;2023-05-16T00:29:54;8.17;;;7.33;;
3959;SDS011;1994;48.640;8.894;2023-05-16T00:32:20;9.50;;;7.47;;
3959;SDS011;1994;48.640;8.894;2023-05-16T00:34:46;10.40;;;8.17;;
3959;SDS011;1994;48.640;8.894;2023-05-16T00:37:12;10.43;;;8.43;;
3959;SDS011;1994;48.640;8.894;2023-05-16T00:39:38;8.30;;;7.47;;
3959;SDS011;1994;48.640;8.894;2023-05-16T00:42:04;9.13;;;7.90;;
3959;SDS011;1994;48.640;8.894;2023-05-16T00:44:30;11.30;;;9.40;;
3959;SDS011;1994;48.640;8.894;2023-05-16T00:46:56;12.73;;;8.47;;
3959;SDS011;1994;48.640;8.894;2023-05-16T00:49:24;11.67;;;8.90;;
3959;SDS011;1994;48.640;8.894;2023-05-16T00:51:50;10.30;;;8.37;;
3959;SDS011;1994;48.640;8.894;2023-05-16T00:54:17;9.47;;;8.30;;
3959;SDS011;1994;48.640;8.894;2023-05-16T00:56:47;11.67;;;8.40;;
3959;SDS011;1994;48.640;8.894;2023-05-16T00:59:13;14.37;;;8.70;;
3959;SDS011;1994;48.640;8.894;2023-05-16T01:01:39;10.60;;;9.40;;
3959;SDS011;1994;48.640;8.894;2023-05-16T01:04:06;9.87;;;8.83;;
3959;SDS011;1994;48.640;8.894;2023-05-16T01:06:32;16.03;;;10.10;;
3959;SDS011;1994;48.640;8.894;2023-05-16T01:08:59;16.07;;;10.20;;
3959;SDS011;1994;48.640;8.894;2023-05-16T01:28:44;16.17;;;11.80;;
3959;SDS011;1994;48.640;8.894;2023-05-16T01:31:12;15.90;;;11.97;;
3959;SDS011;1994;48.640;8.894;2023-05-16T01:33:38;18.47;;;13.13;;
3959;SDS011;1994;48.640;8.894;2023-05-16T01:38:58;17.20;;;11.97;;
3959;SDS011;1994;48.640;8.894;2023-05-16T01:41:40;20.27;;;12.80;;
3959;SDS011;1994;48.640;8.894;2023-05-16T01:47:10;22.87;;;13.63;;
3959;SDS011;1994;48.640;8.894;2023-05-16T01:55:10;22.90;;;15.07;;
3959;SDS011;1994;48.640;8.894;2023-05-16T01:57:47;19.30;;;13.40;;
3959;SDS011;1994;48.640;8.894;2023-05-16T02:00:16;21.23;;;14.27;;
3959;SDS011;1994;48.640;8.894;2023-05-16T02:02:42;22.13;;;13.70;;
3959;SDS011;1994;48.640;8.894;2023-05-16T02:05:08;22.03;;;14.83;;
3959;SDS011;1994;48.640;8.894;2023-05-16T02:07:33;28.10;;;14.47;;
3959;SDS011;1994;48.640;8.894;2023-05-16T02:09:59;23.30;;;13.97;;
3959;SDS011;1994;48.640;8.894;2023-05-16T02:12:25;22.80;;;15.57;;
3959;SDS011;1994;48.640;8.894;2023-05-16T02:14:51;25.07;;;14.60;;
3959;SDS011;1994;48.640;8.894;2023-05-16T02:17:16;23.37;;;15.40;;
3959;SDS011;1994;48.640;8.894;2023-05-16T02:19:42;27.47;;;16.70;;
3959;SDS011;1994;48.640;8.894;2023-05-16T02:22:08;32.33;;;15.80;;
3959;SDS011;1994;48.640;8.894;2023-05-16T02:24:33;26.27;;;16.30;;
3959;SDS011;1994;48.640;8.894;2023-05-16T02:27:00;25.10;;;16.13;;
3959;SDS011;1994;48.640;8.894;2023-05-16T02:29:25;31.10;;;16.80;;
3959;SDS011;1994;48.640;8.894;2023-05-16T02:31:51;28.27;;;16.07;;
3959;SDS011;1994;48.640;8.894;2023-05-16T02:34:17;20.37;;;14.20;;
3959;SDS011;1994;48.640;8.894;2023-05-16T02:36:43;30.63;;;15.33;;
3959;SDS011;1994;48.640;8.894;2023-05-16T02:39:08;24.50;;;15.03;;
3959;SDS011;1994;48.640;8.894;2023-05-16T02:41:35;21.10;;;15.13;;
3959;SDS011;1994;48.640;8.894;2023-05-16T02:44:01;22.03;;;15.37;;
3959;SDS011;1994;48.640;8.894;2023-05-16T02:46:31;28.50;;;16.07;;
3959;SDS011;1994;48.640;8.894;2023-05-16T02:48:58;27.13;;;15.47;;
3959;SDS011;1994;48.640;8.894;2023-05-16T02:51:26;25.33;;;14.77;;
3959;SDS011;1994;48.640;8.894;2023-05-16T02:53:52;21.93;;;15.83;;
3959;SDS011;1994;48.640;8.894;2023-05-16T02:56:20;25.40;;;16.40;;
3959;SDS011;1994;48.640;8.894;2023-05-16T02:58:47;31.90;;;15.90;;
3959;SDS011;1994;48.640;8.894;2023-05-16T03:01:14;28.50;;;17.27;;
3959;SDS011;1994;48.640;8.894;2023-05-16T03:03:41;26.57;;;16.43;;
3959;SDS011;1994;48.640;8.894;2023-05-16T03:06:06;34.53;;;17.53;;
3959;SDS011;1994;48.640;8.894;2023-05-16T03:08:32;28.83;;;17.70;;
3959;SDS011;1994;48.640;8.894;2023-05-16T03:10:59;29.63;;;18.83;;
3959;SDS011;1994;48.640;8.894;2023-05-16T03:13:25;29.77;;;17.33;;
3959;SDS011;1994;48.640;8.894;2023-05-16T03:15:51;30.73;;;16.73;;
3959;SDS011;1994;48.640;8.894;2023-05-16T03:18:17;27.43;;;17.40;;
3959;SDS011;1994;48.640;8.894;2023-05-16T03:20:42;33.93;;;18.90;;
3959;SDS011;1994;48.640;8.894;2023-05-16T03:23:08;27.60;;;18.00;;
3959;SDS011;1994;48.640;8.894;2023-05-16T03:25:34;31.50;;;19.27;;
3959;SDS011;1994;48.640;8.894;2023-05-16T03:28:01;31.50;;;18.90;;
3959;SDS011;1994;48.640;8.894;2023-05-16T03:30:27;28.40;;;16.40;;
3959;SDS011;1994;48.640;8.894;2023-05-16T03:32:53;31.07;;;18.60;;
3959;SDS011;1994;48.640;8.894;2023-05-16T03:35:19;34.63;;;19.17;;
3959;SDS011;1994;48.640;8.894;2023-05-16T03:37:46;32.07;;;17.97;;
3959;SDS011;1994;48.640;8.894;2023-05-16T03:40:12;29.87;;;17.93;;
3959;SDS011;1994;48.640;8.894;2023-05-16T03:42:37;31.60;;;19.17;;
3959;SDS011;1994;48.640;8.894;2023-05-16T03:45:04;38.63;;;18.47;;
3959;SDS011;1994;48.640;8.894;2023-05-16T03:47:30;30.77;;;18.60;;
3959;SDS011;1994;48.640;8.894;2023-05-16T03:49:57;28.40;;;18.57;;
3959;SDS011;1994;48.640;8.894;2023-05-16T03:52:22;33.57;;;19.33;;
3959;SDS011;1994;48.640;8.894;2023-05-16T03:54:48;31.67;;;18.03;;
3959;SDS011;1994;48.640;8.894;2023-05-16T03:57:14;36.37;;;20.20;;
3959;SDS011;1994;48.640;8.894;2023-05-16T03:59:40;40.83;;;20.40;;
3959;SDS011;1994;48.640;8.894;2023-05-16T04:02:06;42.80;;;21.83;;
3959;SDS011;1994;48.640;8.894;2023-05-16T04:04:32;31.37;;;19.43;;
3959;SDS011;1994;48.640;8.894;2023-05-16T04:06:58;35.37;;;19.90;;
3959;SDS011;1994;48.640;8.894;2023-05-16T04:09:25;33.50;;;18.60;;
3959;SDS011;1994;48.640;8.894;2023-05-16T04:11:51;35.33;;;20.50;;
3959;SDS011;1994;48.640;8.894;2023-05-16T04:14:17;33.43;;;19.80;;
3959;SDS011;1994;48.640;8.894;2023-05-16T04:16:42;33.63;;;18.57;;
3959;SDS011;1994;48.640;8.894;2023-05-16T04:19:08;36.13;;;18.97;;
3959;SDS011;1994;48.640;8.894;2023-05-16T04:21:34;39.27;;;18.00;;
3959;SDS011;1994;48.640;8.894;2023-05-16T04:24:00;33.20;;;18.07;;
3959;SDS011;1994;48.640;8.894;2023-05-16T04:26:26;36.93;;;18.80;;
3959;SDS011;1994;48.640;8.894;2023-05-16T04:28:52;32.50;;;20.10;;
3959;SDS011;1994;48.640;8.894;2023-05-16T04:31:18;36.83;;;18.77;;
3959;SDS011;1994;48.640;8.894;2023-05-16T04:33:43;30.00;;;18.63;;
3959;SDS011;1994;48.640;8.894;2023-05-16T04:36:09;32.97;;;18.60;;
3959;SDS011;1994;48.640;8.894;2023-05-16T04:38:35;28.70;;;17.60;;
3959;SDS011;1994;48.640;8.894;2023-05-16T04:41:01;32.63;;;18.73;;
3959;SDS011;1994;48.640;8.894;2023-05-16T04:43:27;32.00;;;16.83;;
3959;SDS011;1994;48.640;8.894;2023-05-16T04:45:54;35.43;;;18.43;;
3959;SDS011;1994;48.640;8.894;2023-05-16T04:48:22;35.10;;;18.27;;
3959;SDS011;1994;48.640;8.894;2023-05-16T04:50:48;28.77;;;17.07;;
3959;SDS011;1994;48.640;8.894;2023-05-16T04:53:13;38.03;;;20.10;;
3959;SDS011;1994;48.640;8.894;2023-05-16T04:55:39;30.20;;;18.23;;
3959;SDS011;1994;48.640;8.894;2023-05-16T04:58:05;36.00;;;19.43;;
3959;SDS011;1994;48.640;8.894;2023-05-16T05:00:33;37.30;;;19.00;;
3959;SDS011;1994;48.640;8.894;2023-05-16T05:02:58;34.73;;;21.00;;
3959;SDS011;1994;48.640;8.894;2023-05-16T05:05:24;33.80;;;18.87;;
3959;SDS011;1994;48.640;8.894;2023-05-16T05:07:50;29.10;;;19.83;;
3959;SDS011;1994;48.640;8.894;2023-05-16T05:10:16;30.60;;;17.10;;
3959;SDS011;1994;48.640;8.894;2023-05-16T05:12:42;36.57;;;18.83;;
3959;SDS011;1994;48.640;8.894;2023-05-16T05:15:08;26.60;;;16.83;;
3959;SDS011;1994;48.640;8.894;2023-05-16T05:17:33;30.67;;;18.03;;
3959;SDS011;1994;48.640;8.894;2023-05-16T05:19:59;29.77;;;17.30;;
3959;SDS011;1994;48.640;8.894;2023-05-16T05:22:25;29.43;;;17.37;;
3959;SDS011;1994;48.640;8.894;2023-05-16T05:24:51;30.50;;;19.50;;
3959;SDS011;1994;48.640;8.894;2023-05-16T05:27:16;32.50;;;18.93;;
3959;SDS011;1994;48.640;8.894;2023-05-16T05:29:42;30.00;;;17.17;;
3959;SDS011;1994;48.640;8.894;2023-05-16T05:32:08;28.43;;;16.73;;
3959;SDS011;1994;48.640;8.894;2023-05-16T05:34:34;31.77;;;18.30;;
3959;SDS011;1994;48.640;8.894;2023-05-16T05:36:59;31.10;;;17.80;;
3959;SDS011;1994;48.640;8.894;2023-05-16T05:39:25;32.30;;;18.10;;
3959;SDS011;1994;48.640;8.894;2023-05-16T05:41:51;29.60;;;18.90;;
3959;SDS011;1994;48.640;8.894;2023-05-16T05:44:17;29.97;;;16.60;;
3959;SDS011;1994;48.640;8.894;2023-05-16T05:46:42;31.50;;;17.80;;
3959;SDS011;1994;48.640;8.894;2023-05-16T05:49:08;35.27;;;18.60;;
3959;SDS011;1994;48.640;8.894;2023-05-16T05:51:34;29.30;;;16.03;;
3959;SDS011;1994;48.640;8.894;2023-05-16T05:54:00;40.83;;;18.10;;
3959;SDS011;1994;48.640;8.894;2023-05-16T05:56:26;34.10;;;19.17;;
3959;SDS011;1994;48.640;8.894;2023-05-16T05:58:52;31.40;;;17.30;;
3959;SDS011;1994;48.640;8.894;2023-05-16T06:01:18;34.20;;;16.83;;
3959;SDS011;1994;48.640;8.894;2023-05-16T06:03:45;33.50;;;16.97;;
3959;SDS011;1994;48.640;8.894;2023-05-16T06:06:11;29.03;;;16.87;;
3959;SDS011;1994;48.640;8.894;2023-05-16T06:08:38;26.10;;;16.20;;
3959;SDS011;1994;48.640;8.894;2023-05-16T06:11:05;29.07;;;18.13;;
3959;SDS011;1994;48.640;8.894;2023-05-16T06:13:32;25.17;;;15.97;;
3959;SDS011;1994;48.640;8.894;2023-05-16T06:15:58;25.07;;;16.03;;
3959;SDS011;1994;48.640;8.894;2023-05-16T06:18:25;25.47;;;16.13;;
3959;SDS011;1994;48.640;8.894;2023-05-16T06:20:51;26.10;;;17.67;;
3959;SDS011;1994;48.640;8.894;2023-05-16T06:23:17;25.13;;;15.70;;
3959;SDS011;1994;48.640;8.894;2023-05-16T06:25:43;28.60;;;16.87;;
3959;SDS011;1994;48.640;8.894;2023-05-16T06:28:08;23.67;;;14.30;;
3959;SDS011;1994;48.640;8.894;2023-05-16T06:30:34;34.13;;;17.90;;
3959;SDS011;1994;48.640;8.894;2023-05-16T06:33:00;23.77;;;15.60;;
3959;SDS011;1994;48.640;8.894;2023-05-16T06:35:26;21.27;;;15.07;;
3959;SDS011;1994;48.640;8.894;2023-05-16T06:37:51;24.73;;;15.10;;
3959;SDS011;1994;48.640;8.894;2023-05-16T06:40:17;25.73;;;15.70;;
3959;SDS011;1994;48.640;8.894;2023-05-16T06:42:43;25.27;;;17.23;;
3959;SDS011;1994;48.640;8.894;2023-05-16T06:45:08;23.43;;;14.70;;
3959;SDS011;1994;48.640;8.894;2023-05-16T06:47:35;24.57;;;15.70;;
3959;SDS011;1994;48.640;8.894;2023-05-16T06:50:00;21.70;;;14.70;;
3959;SDS011;1994;48.640;8.894;2023-05-16T06:52:27;24.47;;;15.37;;
3959;SDS011;1994;48.640;8.894;2023-05-16T06:54:52;21.80;;;13.17;;
3959;SDS011;1994;48.640;8.894;2023-05-16T06:57:18;20.60;;;13.83;;
3959;SDS011;1994;48.640;8.894;2023-05-16T06:59:44;18.30;;;12.87;;
3959;SDS011;1994;48.640;8.894;2023-05-16T07:02:10;24.87;;;12.90;;
3959;SDS011;1994;48.640;8.894;2023-05-16T07:04:35;21.00;;;13.40;;
3959;SDS011;1994;48.640;8.894;2023-05-16T07:07:02;21.23;;;14.37;;
3959;SDS011;1994;48.640;8.894;2023-05-16T07:09:28;21.20;;;11.97;;
3959;SDS011;1994;48.640;8.894;2023-05-16T07:11:55;19.90;;;13.07;;
3959;SDS011;1994;48.640;8.894;2023-05-16T07:14:20;16.70;;;11.70;;
3959;SDS011;1994;48.640;8.894;2023-05-16T07:16:46;22.23;;;15.20;;
3959;SDS011;1994;48.640;8.894;2023-05-16T07:19:12;20.20;;;13.20;;
3959;SDS011;1994;48.640;8.894;2023-05-16T07:21:38;18.60;;;12.10;;
3959;SDS011;1994;48.640;8.894;2023-05-16T07:24:04;19.60;;;12.30;;
3959;SDS011;1994;48.640;8.894;2023-05-16T07:26:31;18.70;;;10.30;;
3959;SDS011;1994;48.640;8.894;2023-05-16T07:28:57;13.10;;;8.93;;
3959;SDS011;1994;48.640;8.894;2023-05-16T07:31:23;12.23;;;8.67;;
3959;SDS011;1994;48.640;8.894;2023-05-16T07:33:49;9.23;;;7.10;;
3959;SDS011;1994;48.640;8.894;2023-05-16T07:36:15;9.50;;;6.97;;
3959;SDS011;1994;48.640;8.894;2023-05-16T07:38:41;9.57;;;7.27;;
3959;SDS011;1994;48.640;8.894;2023-05-16T07:41:07;13.67;;;7.00;;
3959;SDS011;1994;48.640;8.894;2023-05-16T07:43:33;11.23;;;7.13;;
3959;SDS011;1994;48.640;8.894;2023-05-16T07:45:59;9.83;;;7.53;;
3959;SDS011;1994;48.640;8.894;2023-05-16T07:48:26;11.00;;;7.57;;
3959;SDS011;1994;48.640;8.894;2023-05-16T07:50:52;11.70;;;7.80;;
3959;SDS011;1994;48.640;8.894;2023-05-16T07:53:19;8.20;;;7.40;;
3959;SDS011;1994;48.640;8.894;2023-05-16T07:55:45;11.63;;;7.60;;
3959;SDS011;1994;48.640;8.894;2023-05-16T07:58:12;13.90;;;9.23;;
3959;SDS011;1994;48.640;8.894;2023-05-16T08:00:38;11.07;;;7.40;;
3959;SDS011;1994;48.640;8.894;2023-05-16T08:03:04;11.90;;;8.70;;
3959;SDS011;1994;48.640;8.894;2023-05-16T08:05:30;11.67;;;6.77;;
3959;SDS011;1994;48.640;8.894;2023-05-16T08:07:56;8.17;;;6.70;;
3959;SDS011;1994;48.640;8.894;2023-05-16T08:10:22;10.30;;;6.90;;
3959;SDS011;1994;48.640;8.894;2023-05-16T08:12:48;8.87;;;7.00;;
3959;SDS011;1994;48.640;8.894;2023-05-16T08:15:14;7.97;;;6.67;;
3959;SDS011;1994;48.640;8.894;2023-05-16T08:17:40;8.40;;;6.43;;
3959;SDS011;1994;48.640;8.894;2023-05-16T08:20:06;11.70;;;7.33;;
3959;SDS011;1994;48.640;8.894;2023-05-16T08:22:32;9.97;;;6.33;;
3959;SDS011;1994;48.640;8.894;2023-05-16T08:24:58;9.07;;;6.90;;
3959;SDS011;1994;48.640;8.894;2023-05-16T08:27:25;10.37;;;6.60;;
3959;SDS011;1994;48.640;8.894;2023-05-16T08:29:51;6.90;;;5.27;;
3959;SDS011;1994;48.640;8.894;2023-05-16T08:32:17;6.90;;;5.63;;
3959;SDS011;1994;48.640;8.894;2023-05-16T08:34:43;8.03;;;5.67;;
3959;SDS011;1994;48.640;8.894;2023-05-16T08:37:09;8.57;;;7.47;;
3959;SDS011;1994;48.640;8.894;2023-05-16T08:39:37;10.70;;;7.40;;
3959;SDS011;1994;48.640;8.894;2023-05-16T08:42:03;11.47;;;8.03;;
3959;SDS011;1994;48.640;8.894;2023-05-16T08:44:30;11.90;;;8.17;;
3959;SDS011;1994;48.640;8.894;2023-05-16T08:46:56;11.03;;;7.23;;
3959;SDS011;1994;48.640;8.894;2023-05-16T08:49:27;10.40;;;7.80;;
3959;SDS011;1994;48.640;8.894;2023-05-16T08:51:55;10.20;;;7.67;;
3959;SDS011;1994;48.640;8.894;2023-05-16T08:54:24;14.10;;;7.50;;
3959;SDS011;1994;48.640;8.894;2023-05-16T08:56:51;12.00;;;8.17;;
3959;SDS011;1994;48.640;8.894;2023-05-16T08:59:17;11.63;;;8.03;;
3959;SDS011;1994;48.640;8.894;2023-05-16T09:01:44;11.80;;;7.73;;
3959;SDS011;1994;48.640;8.894;2023-05-16T09:04:11;10.43;;;7.93;;
3959;SDS011;1994;48.640;8.894;2023-05-16T09:06:36;11.80;;;8.47;;
3959;SDS011;1994;48.640;8.894;2023-05-16T09:09:02;13.60;;;9.60;;
3959;SDS011;1994;48.640;8.894;2023-05-16T09:11:31;13.20;;;8.17;;
3959;SDS011;1994;48.640;8.894;2023-05-16T09:13:58;11.83;;;8.60;;
3959;SDS011;1994;48.640;8.894;2023-05-16T09:16:24;13.20;;;9.00;;
3959;SDS011;1994;48.640;8.894;2023-05-16T09:18:53;16.20;;;8.20;;
3959;SDS011;1994;48.640;8.894;2023-05-16T09:21:31;12.97;;;9.17;;
3959;SDS011;1994;48.640;8.894;2023-05-16T09:24:05;13.53;;;9.07;;
3959;SDS011;1994;48.640;8.894;2023-05-16T09:26:35;16.47;;;9.90;;
3959;SDS011;1994;48.640;8.894;2023-05-16T09:29:11;15.87;;;10.60;;
3959;SDS011;1994;48.640;8.894;2023-05-16T09:31:38;14.07;;;10.27;;
3959;SDS011;1994;48.640;8.894;2023-05-16T09:34:07;12.97;;;9.23;;
3959;SDS011;1994;48.640;8.894;2023-05-16T09:36:36;13.77;;;10.10;;
3959;SDS011;1994;48.640;8.894;2023-05-16T09:39:01;14.73;;;8.80;;
3959;SDS011;1994;48.640;8.894;2023-05-16T09:41:28;11.60;;;9.00;;
3959;SDS011;1994;48.640;8.894;2023-05-16T09:43:58;16.10;;;9.83;;
3959;SDS011;1994;48.640;8.894;2023-05-16T09:46:32;15.40;;;9.57;;
3959;SDS011;1994;48.640;8.894;2023-05-16T09:48:59;14.23;;;9.50;;
3959;SDS011;1994;48.640;8.894;2023-05-16T09:51:25;14.50;;;9.10;;
3959;SDS011;1994;48.640;8.894;2023-05-16T09:53:51;11.73;;;9.70;;
3959;SDS011;1994;48.640;8.894;2023-05-16T09:56:16;13.67;;;9.60;;
3959;SDS011;1994;48.640;8.894;2023-05-16T09:58:43;11.83;;;8.37;;
3959;SDS011;1994;48.640;8.894;2023-05-16T10:01:10;12.00;;;9.17;;
3959;SDS011;1994;48.640;8.894;2023-05-16T10:03:37;12.47;;;8.97;;
3959;SDS011;1994;48.640;8.894;2023-05-16T10:06:05;13.73;;;9.80;;
3959;SDS011;1994;48.640;8.894;2023-05-16T10:08:34;20.03;;;8.40;;
3959;SDS011;1994;48.640;8.894;2023-05-16T10:11:01;11.20;;;8.20;;
3959;SDS011;1994;48.640;8.894;2023-05-16T10:13:30;11.13;;;8.03;;
3959;SDS011;1994;48.640;8.894;2023-05-16T10:15:59;14.03;;;10.20;;
3959;SDS011;1994;48.640;8.894;2023-05-16T10:18:31;9.57;;;8.20;;
3959;SDS011;1994;48.640;8.894;2023-05-16T10:21:21;10.20;;;8.27;;
3959;SDS011;1994;48.640;8.894;2023-05-16T10:23:47;10.47;;;7.83;;
3959;SDS011;1994;48.640;8.894;2023-05-16T10:26:15;15.83;;;8.03;;
3959;SDS011;1994;48.640;8.894;2023-05-16T10:28:42;14.00;;;8.50;;
3959;SDS011;1994;48.640;8.894;2023-05-16T10:31:09;11.03;;;7.23;;
3959;SDS011;1994;48.640;8.894;2023-05-16T10:33:35;9.00;;;6.93;;
3959;SDS011;1994;48.640;8.894;2023-05-16T10:36:01;8.90;;;6.63;;
3959;SDS011;1994;48.640;8.894;2023-05-16T10:38:29;12.10;;;8.33;;
3959;SDS011;1994;48.640;8.894;2023-05-16T10:40:56;9.13;;;7.07;;
3959;SDS011;1994;48.640;8.894;2023-05-16T10:43:23;11.30;;;7.20;;
3959;SDS011;1994;48.640;8.894;2023-05-16T10:45:54;11.50;;;6.70;;
3959;SDS011;1994;48.640;8.894;2023-05-16T10:48:31;8.90;;;6.13;;
3959;SDS011;1994;48.640;8.894;2023-05-16T10:51:01;7.23;;;5.77;;
3959;SDS011;1994;48.640;8.894;2023-05-16T10:53:29;9.83;;;6.23;;
3959;SDS011;1994;48.640;8.894;2023-05-16T10:58:23;8.27;;;6.50;;
3959;SDS011;1994;48.640;8.894;2023-05-16T11:04:05;5.80;;;5.10;;
3959;SDS011;1994;48.640;8.894;2023-05-16T11:06:35;6.73;;;4.87;;
3959;SDS011;1994;48.640;8.894;2023-05-16T11:17:02;5.13;;;4.57;;
3959;SDS011;1994;48.640;8.894;2023-05-16T11:22:23;5.13;;;4.73;;
3959;SDS011;1994;48.640;8.894;2023-05-16T11:25:02;4.00;;;3.60;;
3959;SDS011;1994;48.640;8.894;2023-05-16T11:32:38;4.20;;;3.80;;
3959;SDS011;1994;48.640;8.894;2023-05-16T11:35:06;3.33;;;3.13;;
3959;SDS011;1994;48.640;8.894;2023-05-16T11:37:37;6.67;;;4.50;;
3959;SDS011;1994;48.640;8.894;2023-05-16T11:40:03;4.57;;;4.00;;
3959;SDS011;1994;48.640;8.894;2023-05-16T11:42:36;4.63;;;4.13;;
3959;SDS011;1994;48.640;8.894;2023-05-16T11:45:09;7.47;;;4.40;;
3959;SDS011;1994;48.640;8.894;2023-05-16T11:47:37;5.13;;;4.27;;
3959;SDS011;1994;48.640;8.894;2023-05-16T11:50:11;4.33;;;3.93;;
3959;SDS011;1994;48.640;8.894;2023-05-16T11:52:43;8.50;;;5.20;;
3959;SDS011;1994;48.640;8.894;2023-05-16T11:55:12;5.87;;;4.53;;
3959;SDS011;1994;48.640;8.894;2023-05-16T11:57:40;5.70;;;4.70;;
3959;SDS011;1994;48.640;8.894;2023-05-16T12:00:16;7.03;;;4.90;;
3959;SDS011;1994;48.640;8.894;2023-05-16T12:02:45;6.67;;;4.77;;
3959;SDS011;1994;48.640;8.894;2023-05-16T12:05:12;5.23;;;4.50;;
3959;SDS011;1994;48.640;8.894;2023-05-16T12:07:41;6.80;;;4.97;;
3959;SDS011;1994;48.640;8.894;2023-05-16T12:10:09;5.60;;;4.47;;
3959;SDS011;1994;48.640;8.894;2023-05-16T12:12:38;6.00;;;4.77;;
3959;SDS011;1994;48.640;8.894;2023-05-16T12:15:10;5.43;;;4.63;;
3959;SDS011;1994;48.640;8.894;2023-05-16T12:17:38;4.83;;;4.40;;
3959;SDS011;1994;48.640;8.894;2023-05-16T12:20:05;5.67;;;5.00;;
3959;SDS011;1994;48.640;8.894;2023-05-16T12:22:41;6.23;;;5.63;;
3959;SDS011;1994;48.640;8.894;2023-05-16T12:25:19;5.03;;;4.50;;
3959;SDS011;1994;48.640;8.894;2023-05-16T12:27:47;3.90;;;3.60;;
3959;SDS011;1994;48.640;8.894;2023-05-16T12:30:15;5.07;;;3.80;;
3959;SDS011;1994;48.640;8.894;2023-05-16T12:32:42;3.97;;;3.60;;
3959;SDS011;1994;48.640;8.894;2023-05-16T12:35:09;3.80;;;3.50;;
3959;SDS011;1994;48.640;8.894;2023-05-16T12:37:37;3.13;;;2.90;;
3959;SDS011;1994;48.640;8.894;2023-05-16T12:40:02;3.17;;;2.97;;
3959;SDS011;1994;48.640;8.894;2023-05-16T12:42:30;3.20;;;2.90;;
3959;SDS011;1994;48.640;8.894;2023-05-16T12:44:55;2.53;;;2.43;;
3959;SDS011;1994;48.640;8.894;2023-05-16T12:47:21;3.63;;;2.60;;
3959;SDS011;1994;48.640;8.894;2023-05-16T12:49:47;7.50;;;2.00;;
3959;SDS011;1994;48.640;8.894;2023-05-16T12:52:17;2.20;;;2.10;;
3959;SDS011;1994;48.640;8.894;2023-05-16T12:54:44;2.03;;;1.93;;
3959;SDS011;1994;48.640;8.894;2023-05-16T12:57:11;1.77;;;1.67;;
3959;SDS011;1994;48.640;8.894;2023-05-16T12:59:37;2.00;;;1.90;;
3959;SDS011;1994;48.640;8.894;2023-05-16T13:02:03;2.27;;;2.17;;
3959;SDS011;1994;48.640;8.894;2023-05-16T13:04:29;4.43;;;4.03;;
3959;SDS011;1994;48.640;8.894;2023-05-16T13:06:55;2.87;;;2.57;;
3959;SDS011;1994;48.640;8.894;2023-05-16T13:09:21;12.23;;;2.43;;
3959;SDS011;1994;48.640;8.894;2023-05-16T13:11:48;3.77;;;2.67;;
3959;SDS011;1994;48.640;8.894;2023-05-16T13:14:14;9.13;;;6.80;;
3959;SDS011;1994;48.640;8.894;2023-05-16T13:16:41;4.00;;;3.70;;
3959;SDS011;1994;48.640;8.894;2023-05-16T13:19:07;5.37;;;2.87;;
3959;SDS011;1994;48.640;8.894;2023-05-16T13:21:33;3.47;;;3.20;;
3959;SDS011;1994;48.640;8.894;2023-05-16T13:23:59;2.17;;;2.07;;
3959;SDS011;1994;48.640;8.894;2023-05-16T13:26:25;3.77;;;3.43;;
3959;SDS011;1994;48.640;8.894;2023-05-16T13:28:51;4.00;;;3.70;;
3959;SDS011;1994;48.640;8.894;2023-05-16T13:31:18;4.47;;;3.10;;
3959;SDS011;1994;48.640;8.894;2023-05-16T13:33:46;3.90;;;3.50;;
3959;SDS011;1994;48.640;8.894;2023-05-16T13:36:12;3.57;;;3.07;;
3959;SDS011;1994;48.640;8.894;2023-05-16T13:38:38;6.47;;;2.67;;
3959;SDS011;1994;48.640;8.894;2023-05-16T13:41:05;5.73;;;4.10;;
3959;SDS011;1994;48.640;8.894;2023-05-16T13:43:31;2.67;;;2.47;;
3959;SDS011;1994;48.640;8.894;2023-05-16T13:45:56;7.27;;;5.00;;
3959;SDS011;1994;48.640;8.894;2023-05-16T13:48:22;3.17;;;2.97;;
3959;SDS011;1994;48.640;8.894;2023-05-16T13:50:49;3.60;;;2.77;;
3959;SDS011;1994;48.640;8.894;2023-05-16T13:53:15;2.60;;;2.50;;
3959;SDS011;1994;48.640;8.894;2023-05-16T13:55:41;3.23;;;2.97;;
3959;SDS011;1994;48.640;8.894;2023-05-16T13:58:07;3.17;;;2.97;;
3959;SDS011;1994;48.640;8.894;2023-05-16T14:00:34;3.83;;;3.63;;
3959;SDS011;1994;48.640;8.894;2023-05-16T14:03:00;4.50;;;2.43;;
3959;SDS011;1994;48.640;8.894;2023-05-16T14:05:25;4.67;;;3.27;;
3959;SDS011;1994;48.640;8.894;2023-05-16T14:07:51;2.77;;;2.57;;
3959;SDS011;1994;48.640;8.894;2023-05-16T14:10:17;3.40;;;2.80;;
3959;SDS011;1994;48.640;8.894;2023-05-16T14:12:43;2.20;;;2.00;;
3959;SDS011;1994;48.640;8.894;2023-05-16T14:15:08;2.20;;;2.10;;
3959;SDS011;1994;48.640;8.894;2023-05-16T14:17:34;2.67;;;2.50;;
3959;SDS011;1994;48.640;8.894;2023-05-16T14:20:00;2.17;;;2.07;;
3959;SDS011;1994;48.640;8.894;2023-05-16T14:22:26;2.77;;;2.20;;
3959;SDS011;1994;48.640;8.894;2023-05-16T14:24:52;8.23;;;2.67;;
3959;SDS011;1994;48.640;8.894;2023-05-16T14:27:18;3.10;;;2.43;;
3959;SDS011;1994;48.640;8.894;2023-05-16T14:29:44;3.57;;;2.67;;
3959;SDS011;1994;48.640;8.894;2023-05-16T14:32:10;1.70;;;1.60;;
3959;SDS011;1994;48.640;8.894;2023-05-16T14:34:36;2.30;;;2.10;;
3959;SDS011;1994;48.640;8.894;2023-05-16T14:37:02;2.77;;;1.80;;
3959;SDS011;1994;48.640;8.894;2023-05-16T14:39:28;5.37;;;2.00;;
3959;SDS011;1994;48.640;8.894;2023-05-16T14:41:53;2.10;;;2.00;;
3959;SDS011;1994;48.640;8.894;2023-05-16T14:44:19;2.00;;;1.90;;
3959;SDS011;1994;48.640;8.894;2023-05-16T14:46:48;2.10;;;2.00;;
3959;SDS011;1994;48.640;8.894;2023-05-16T14:49:14;6.93;;;1.97;;
3959;SDS011;1994;48.640;8.894;2023-05-16T14:51:40;5.60;;;1.73;;
3959;SDS011;1994;48.640;8.894;2023-05-16T14:54:08;2.37;;;2.17;;
3959;SDS011;1994;48.640;8.894;2023-05-16T14:56:34;2.10;;;2.00;;
3959;SDS011;1994;48.640;8.894;2023-05-16T14:59:00;5.33;;;2.30;;
3959;SDS011;1994;48.640;8.894;2023-05-16T15:01:26;2.00;;;1.90;;
3959;SDS011;1994;48.640;8.894;2023-05-16T15:03:52;2.10;;;1.87;;
3959;SDS011;1994;48.640;8.894;2023-05-16T15:06:17;1.70;;;1.60;;
3959;SDS011;1994;48.640;8.894;2023-05-16T15:08:43;4.57;;;2.53;;
3959;SDS011;1994;48.640;8.894;2023-05-16T15:11:09;2.20;;;2.00;;
3959;SDS011;1994;48.640;8.894;2023-05-16T15:13:35;2.00;;;1.90;;
3959;SDS011;1994;48.640;8.894;2023-05-16T15:16:01;2.00;;;1.90;;
3959;SDS011;1994;48.640;8.894;2023-05-16T15:18:27;1.93;;;1.70;;
3959;SDS011;1994;48.640;8.894;2023-05-16T15:20:53;2.00;;;1.90;;
3959;SDS011;1994;48.640;8.894;2023-05-16T15:23:18;5.70;;;2.70;;
3959;SDS011;1994;48.640;8.894;2023-05-16T15:25:44;6.20;;;3.73;;
3959;SDS011;1994;48.640;8.894;2023-05-16T15:28:10;3.00;;;2.80;;
3959;SDS011;1994;48.640;8.894;2023-05-16T15:30:36;7.83;;;2.93;;
3959;SDS011;1994;48.640;8.894;2023-05-16T15:33:02;4.30;;;2.87;;
3959;SDS011;1994;48.640;8.894;2023-05-16T15:35:28;3.57;;;2.30;;
3959;SDS011;1994;48.640;8.894;2023-05-16T15:37:53;5.17;;;2.57;;
3959;SDS011;1994;48.640;8.894;2023-05-16T15:40:22;3.50;;;2.20;;
3959;SDS011;1994;48.640;8.894;2023-05-16T15:42:48;3.30;;;2.97;;
3959;SDS011;1994;48.640;8.894;2023-05-16T15:45:14;3.13;;;2.83;;
3959;SDS011;1994;48.640;8.894;2023-05-16T15:47:40;3.40;;;3.07;;